createdAt,value
2018-09-01T00:06:53.020Z,1017.7
2018-09-01T00:17:07.218Z,1017.7
2018-09-01T00:27:21.561Z,1017.7
2018-09-01T00:37:36.122Z,1017.7
2018-09-01T00:47:50.124Z,1017.7
2018-09-01T00:58:04.758Z,1017.8
2018-09-01T01:08:18.544Z,1017.8
2018-09-01T01:18:32.709Z,1017.9
2018-09-01T01:28:48.268Z,1017.8
2018-09-01T01:39:02.753Z,1017.9
2018-09-01T01:49:16.528Z,1017.9
2018-09-01T01:59:30.264Z,1018
2018-09-01T02:09:45.635Z,1017.9
2018-09-01T02:20:00.410Z,1018
2018-09-01T02:30:15.529Z,1018
2018-09-01T02:40:30.307Z,1018.1
2018-09-01T02:50:44.470Z,1018.1
2018-09-01T03:00:58.206Z,1018
2018-09-01T03:11:13.255Z,1018
2018-09-01T03:21:28.744Z,1018
2018-09-01T03:31:42.960Z,1018.1
2018-09-01T03:41:56.879Z,1018
2018-09-01T03:52:10.712Z,1018.1
2018-09-01T04:02:24.947Z,1018.1
2018-09-01T04:12:38.851Z,1018.1
2018-09-01T04:22:54.305Z,1018.2
2018-09-01T04:33:09.302Z,1018.2
2018-09-01T04:43:24.042Z,1018.4
2018-09-01T04:53:38.450Z,1018.4
2018-09-01T05:03:53.928Z,1018.5
2018-09-01T05:14:08.450Z,1018.6
2018-09-01T05:24:22.173Z,1018.7
2018-09-01T05:34:37.188Z,1018.8
2018-09-01T05:44:51.779Z,1018.9
2018-09-01T05:55:07.374Z,1019.1
2018-09-01T06:05:22.408Z,1019.2
2018-09-01T06:15:38.033Z,1019.3
2018-09-01T06:25:52.724Z,1019.4
2018-09-01T06:36:06.901Z,1019.5
2018-09-01T06:46:21.446Z,1019.5
2018-09-01T06:56:35.554Z,1019.6
2018-09-01T07:06:50.526Z,1019.7
2018-09-01T07:17:04.358Z,1019.7
2018-09-01T07:27:19.351Z,1019.8
2018-09-01T07:37:34.822Z,1019.8
2018-09-01T07:47:50.042Z,1019.9
2018-09-01T07:58:05.399Z,1020
2018-09-01T08:08:19.148Z,1020.2
2018-09-01T08:18:33.170Z,1020.2
2018-09-01T08:28:48.057Z,1020.1
2018-09-01T08:39:02.697Z,1020.3
2018-09-01T08:49:17.743Z,1020.4
2018-09-01T08:59:32.271Z,1020.4
2018-09-01T09:09:47.246Z,1020.5
2018-09-01T09:20:02.358Z,1020.5
2018-09-01T09:30:16.467Z,1020.5
2018-09-01T09:40:31.811Z,1020.5
2018-09-01T09:50:47.673Z,1020.8
2018-09-01T10:01:03.435Z,1020.5
2018-09-01T10:11:18.398Z,1020.6
2018-09-01T10:21:31.919Z,1020.6
2018-09-01T10:31:46.321Z,1020.7
2018-09-01T10:42:01.324Z,1020.9
2018-09-01T10:52:17.210Z,1020.4
2018-09-01T11:02:31.464Z,1020.4
2018-09-01T11:12:46.333Z,1020.5
2018-09-01T11:23:02.068Z,1020.3
2018-09-01T11:33:18.219Z,1020.4
2018-09-01T11:43:33.899Z,1020.6
2018-09-01T11:53:48.169Z,1020.3
2018-09-01T12:04:03.922Z,1020.3
2018-09-01T12:14:18.701Z,1020.6
2018-09-01T12:24:33.386Z,1020
2018-09-01T12:34:47.532Z,1020
2018-09-01T12:45:01.754Z,1020
2018-09-01T12:55:16.185Z,1020.2
2018-09-01T13:05:31.955Z,1019.9
2018-09-01T13:15:47.657Z,1019.8
2018-09-01T13:26:01.780Z,1019.6
2018-09-01T13:36:16.656Z,1019.6
2018-09-01T13:46:32.271Z,1019.6
2018-09-01T13:56:47.731Z,1019.8
2018-09-01T14:07:02.428Z,1019.8
2018-09-01T14:17:17.723Z,1020
2018-09-01T14:27:33.435Z,1020
2018-09-01T14:37:47.380Z,1019.8
2018-09-01T14:48:01.310Z,1019.5
2018-09-01T14:58:16.432Z,1019.4
2018-09-01T15:08:31.008Z,1019.3
2018-09-01T15:18:45.062Z,1019.6
2018-09-01T15:29:00.506Z,1019.4
2018-09-01T15:39:16.045Z,1019.5
2018-09-01T15:49:31.081Z,1019.5
2018-09-01T15:59:45.287Z,1019.4
2018-09-01T16:10:00.242Z,1019.3
2018-09-01T16:20:15.492Z,1019.2
2018-09-01T16:30:29.424Z,1019.3
2018-09-01T16:40:43.612Z,1019.3
2018-09-01T16:50:58.286Z,1019.3
2018-09-01T17:01:13.126Z,1019.3
2018-09-01T17:11:28.527Z,1019.4
2018-09-01T17:21:42.893Z,1019.4
2018-09-01T17:31:58.497Z,1019.4
2018-09-01T17:42:12.819Z,1019.4
2018-09-01T17:52:26.616Z,1019.4
2018-09-01T18:02:41.004Z,1019.4
2018-09-01T18:12:55.704Z,1019.4
2018-09-01T18:23:10.022Z,1019.5
2018-09-01T18:33:24.128Z,1019.6
2018-09-01T18:43:39.385Z,1019.8
2018-09-01T18:53:52.259Z,1019.8
2018-09-01T19:04:06.117Z,1019.8
2018-09-01T19:14:20.129Z,1019.8
2018-09-01T19:24:35.175Z,1019.9
2018-09-01T19:34:50.744Z,1019.9
2018-09-01T19:45:04.641Z,1019.8
2018-09-01T19:55:18.931Z,1019.9
2018-09-01T20:05:33.344Z,1019.9
2018-09-01T20:15:47.987Z,1020
2018-09-01T20:26:03.165Z,1019.9
2018-09-01T20:36:18.187Z,1020.1
2018-09-01T20:46:32.396Z,1020.1
2018-09-01T20:56:46.890Z,1020.1
2018-09-01T21:07:00.612Z,1020.1
2018-09-01T21:17:16.091Z,1020.2
2018-09-01T21:27:31.939Z,1020.3
2018-09-01T21:37:46.447Z,1020.2
2018-09-01T21:48:00.912Z,1020.2
2018-09-01T21:58:15.692Z,1020.2
2018-09-01T22:08:30.898Z,1020.2
2018-09-01T22:18:45.500Z,1020.3
2018-09-01T22:29:00.100Z,1020.3
2018-09-01T22:39:15.799Z,1020.2
2018-09-01T22:49:30.025Z,1020.3
2018-09-01T22:59:44.550Z,1020.2
2018-09-01T23:10:00.168Z,1020.3
2018-09-01T23:20:13.696Z,1020.2
2018-09-01T23:30:27.783Z,1020.2
2018-09-01T23:40:42.550Z,1020.1
2018-09-01T23:50:57.236Z,1020.1
